Ana Sayfa
METAR-TAF:

METAR-TAF

Havaalanları :

Keetmanshoop, Namibya

Enlem: 26-32S, Boylam: 018-07E, yükseklik: 1067 m

Güncel hava durumu gözlemi

Rapor saat 07:00 UTC de 45 dakika önce yapıldı.
Rüzgar kuzeydoğudan 6 kt
Sıcaklık 21°C
Nem 21%
Basınç 1023 hPa
Görüş mesafesi 10 km veya daha fazla
1500 m altında bulut yok ve kümülonimbus yok

METAR: FYKT 150700Z 04006KT CAVOK 21/M02 Q1023

Saat: 09:45 (07:45 UTC)

Tahmin

Rapor saat 04:00 UTC de 3 saat ve 45 dakika önce yapıldı.
Ayın 15'si saat 06 UTC'den ayın 16'si saat 06 UTC'ye kadar geçerli Tahmin
Rüzgar kuzeydoğudan 5 kt
Görüş mesafesi 10 km veya daha fazla
1500 m altında bulut yok ve kümülonimbus yok
Dönüşüyor
ayın 15'si saat 15 UTC'den ayın 15'si saat 17 UTC'ye kadar
Rüzgar güneybatıdan 6 kt

TAF: FYKT 150400Z 1506/1606 05005KT CAVOK BECMG 1515/1517 22006KT

4.000'den fazla havaalanı için hava durumu gözlemleri ve tahminleri (METAR ve TAF raporları).

Kullanılabilir istasyonlar harita üzerinde sarı ve kırmızı noktalarla gösterilir.

İstasyonun adını görmek için fareyi noktanın üzerinde gezdirin.

Sonrasında hava gözlem ve tahminlerini görmek için tıklayın.

Haritayı değiştirmek için: yaklaştırmak için siyah artı işaretli yeşil düğmeye ve uzaklaştırmak için de eksi işaretli düğmeye hızla tıklayın; bitişik haritalar için yeşil okları kullanın.


METAR-TAF: